createdAt,value
2023-04-30T00:00:10.834Z,8.57
2023-04-30T00:02:13.628Z,8.60
2023-04-30T00:04:16.361Z,9.00
2023-04-30T00:06:20.310Z,9.18
2023-04-30T00:08:23.014Z,8.63
2023-04-30T00:10:25.580Z,8.93
2023-04-30T00:12:28.429Z,9.50
2023-04-30T00:14:31.115Z,9.32
2023-04-30T00:16:33.734Z,8.32
2023-04-30T00:18:36.382Z,8.20
2023-04-30T00:20:38.985Z,8.40
2023-04-30T00:22:42.909Z,8.05
2023-04-30T00:24:48.697Z,8.13
2023-04-30T00:26:51.255Z,8.95
2023-04-30T00:28:55.363Z,8.02
2023-04-30T00:30:58.023Z,8.32
2023-04-30T00:33:00.684Z,9.43
2023-04-30T00:35:03.362Z,8.77
2023-04-30T00:37:05.928Z,7.90
2023-04-30T00:39:09.984Z,8.10
2023-04-30T00:41:12.808Z,8.00
2023-04-30T00:43:15.366Z,7.93
2023-04-30T00:45:21.982Z,8.13
2023-04-30T00:47:24.706Z,8.40
2023-04-30T00:49:27.496Z,8.15
2023-04-30T00:51:31.281Z,7.85
2023-04-30T00:53:34.537Z,7.97
2023-04-30T00:55:38.914Z,7.72
2023-04-30T00:57:42.096Z,7.68
2023-04-30T00:59:44.769Z,7.63
2023-04-30T01:01:47.718Z,8.13
2023-04-30T01:03:50.600Z,7.82
2023-04-30T01:05:53.733Z,7.65
2023-04-30T01:07:58.007Z,7.40
2023-04-30T01:10:00.790Z,7.88
2023-04-30T01:12:11.341Z,7.70
2023-04-30T01:14:23.731Z,7.25
2023-04-30T01:16:29.478Z,7.43
2023-04-30T01:18:36.329Z,7.35
2023-04-30T01:20:43.379Z,7.05
2023-04-30T01:22:51.592Z,7.35
2023-04-30T01:25:09.943Z,7.18
2023-04-30T01:27:30.790Z,7.32
2023-04-30T01:29:37.458Z,7.03
2023-04-30T01:31:40.172Z,7.15
2023-04-30T01:33:42.957Z,6.60
2023-04-30T01:35:59.669Z,7.03
2023-04-30T01:38:19.534Z,6.47
2023-04-30T01:40:29.184Z,6.65
2023-04-30T01:42:37.817Z,7.03
2023-04-30T01:44:55.702Z,5.65
2023-04-30T01:47:05.767Z,6.82
2023-04-30T01:49:16.445Z,6.40
2023-04-30T01:51:23.347Z,6.80
2023-04-30T01:53:32.894Z,7.43
2023-04-30T01:55:38.816Z,6.30
2023-04-30T01:57:44.913Z,5.65
2023-04-30T01:59:49.015Z,6.25
2023-04-30T02:01:55.329Z,6.63
2023-04-30T02:03:58.426Z,6.22
2023-04-30T02:06:01.064Z,6.40
2023-04-30T02:08:04.131Z,5.80
2023-04-30T02:10:07.770Z,6.35
2023-04-30T02:12:11.165Z,6.50
2023-04-30T02:14:13.719Z,6.15
2023-04-30T02:16:17.663Z,6.28
2023-04-30T02:18:20.335Z,5.95
2023-04-30T02:20:23.079Z,6.28
2023-04-30T02:22:25.701Z,6.70
2023-04-30T02:24:28.271Z,6.35
2023-04-30T02:26:30.828Z,6.30
2023-04-30T02:28:33.407Z,6.45
2023-04-30T02:30:35.986Z,6.60
2023-04-30T02:32:40.000Z,6.75
2023-04-30T02:34:42.609Z,6.18
2023-04-30T02:36:45.165Z,6.45
2023-04-30T02:38:47.798Z,6.38
2023-04-30T02:40:50.377Z,6.28
2023-04-30T02:42:54.894Z,5.75
2023-04-30T02:44:57.696Z,5.60
2023-04-30T02:47:00.385Z,6.13
2023-04-30T02:49:04.312Z,5.90
2023-04-30T02:51:06.941Z,5.40
2023-04-30T02:53:09.493Z,5.78
2023-04-30T02:55:12.139Z,5.47
2023-04-30T02:57:14.732Z,5.70
2023-04-30T02:59:17.339Z,6.20
2023-04-30T03:01:19.952Z,5.55
2023-04-30T03:03:22.897Z,5.85
2023-04-30T03:05:26.920Z,5.93
2023-04-30T03:07:29.507Z,5.80
2023-04-30T03:09:32.339Z,5.57
2023-04-30T03:11:37.475Z,6.00
2023-04-30T03:13:40.139Z,6.07
2023-04-30T03:15:42.704Z,5.75
2023-04-30T03:17:46.337Z,5.70
2023-04-30T03:19:49.038Z,5.22
2023-04-30T03:21:53.372Z,5.43
2023-04-30T03:23:55.956Z,6.18
2023-04-30T03:25:58.517Z,5.75
2023-04-30T03:28:01.127Z,6.38
2023-04-30T03:30:03.734Z,5.43
2023-04-30T03:32:06.371Z,6.07
2023-04-30T03:34:08.982Z,6.40
2023-04-30T03:36:11.770Z,6.78
2023-04-30T03:38:15.758Z,6.22
2023-04-30T03:40:18.599Z,5.10
2023-04-30T03:42:21.190Z,5.00
2023-04-30T03:44:23.839Z,5.22
2023-04-30T03:46:26.458Z,5.55
2023-04-30T03:48:29.052Z,5.45
2023-04-30T03:50:31.675Z,5.57
2023-04-30T03:52:34.706Z,5.05
2023-04-30T03:54:38.702Z,5.97
2023-04-30T03:56:41.362Z,5.85
2023-04-30T03:58:44.058Z,6.18
2023-04-30T04:00:47.673Z,7.03
2023-04-30T04:02:50.619Z,6.00
2023-04-30T04:04:53.529Z,6.07
2023-04-30T04:06:56.085Z,6.47
2023-04-30T04:08:58.698Z,6.53
2023-04-30T04:11:02.646Z,5.28
2023-04-30T04:13:05.220Z,5.70
2023-04-30T04:15:09.295Z,6.38
2023-04-30T04:17:11.983Z,5.40
2023-04-30T04:19:14.555Z,5.80
2023-04-30T04:21:17.518Z,5.80
2023-04-30T04:23:20.140Z,5.35
2023-04-30T04:25:25.147Z,5.47
2023-04-30T04:27:29.109Z,5.60
2023-04-30T04:29:32.192Z,5.47
2023-04-30T04:31:34.824Z,6.00
2023-04-30T04:33:37.475Z,5.50
2023-04-30T04:35:40.050Z,5.90
2023-04-30T04:37:42.790Z,5.53
2023-04-30T04:39:45.707Z,6.00
2023-04-30T04:41:48.272Z,5.57
2023-04-30T04:43:52.847Z,6.00
2023-04-30T04:45:55.503Z,5.15
2023-04-30T04:47:58.230Z,5.13
2023-04-30T04:50:00.798Z,5.15
2023-04-30T04:52:03.771Z,5.30
2023-04-30T04:54:06.420Z,5.43
2023-04-30T04:56:09.285Z,6.80
2023-04-30T04:58:11.915Z,5.70
2023-04-30T05:00:17.746Z,6.38
2023-04-30T05:02:21.269Z,6.40
2023-04-30T05:04:23.838Z,6.72
2023-04-30T05:06:27.075Z,6.88
2023-04-30T05:08:29.720Z,5.82
2023-04-30T05:10:32.286Z,6.80
2023-04-30T05:12:34.867Z,7.32
2023-04-30T05:14:37.458Z,7.18
2023-04-30T05:16:41.432Z,7.13
2023-04-30T05:18:44.072Z,7.03
2023-04-30T05:20:46.623Z,7.25
2023-04-30T05:22:49.230Z,7.10
2023-04-30T05:24:53.017Z,7.47
2023-04-30T05:26:55.771Z,7.72
2023-04-30T05:28:58.506Z,8.32
2023-04-30T05:31:01.039Z,8.95
2023-04-30T05:33:05.191Z,7.60
2023-04-30T05:35:08.600Z,8.35
2023-04-30T05:37:12.663Z,7.93
2023-04-30T05:39:15.496Z,8.88
2023-04-30T05:41:18.043Z,7.97
2023-04-30T05:43:20.602Z,8.55
2023-04-30T05:45:23.190Z,7.80
2023-04-30T05:47:25.759Z,8.90
2023-04-30T05:49:30.984Z,8.90
2023-04-30T05:51:33.559Z,8.07
2023-04-30T05:53:36.112Z,9.13
2023-04-30T05:55:38.794Z,8.90
2023-04-30T05:57:41.381Z,8.38
2023-04-30T05:59:43.942Z,8.55
2023-04-30T06:01:46.570Z,8.52
2023-04-30T06:03:49.172Z,9.13
2023-04-30T06:05:53.071Z,8.68
2023-04-30T06:07:55.631Z,8.38
2023-04-30T06:09:58.776Z,9.00
2023-04-30T06:12:02.457Z,8.30
2023-04-30T06:14:05.396Z,8.95
2023-04-30T06:16:08.906Z,8.45
2023-04-30T06:18:14.249Z,9.45
2023-04-30T06:20:17.081Z,8.82
2023-04-30T06:22:20.983Z,8.85
2023-04-30T06:24:23.591Z,8.68
2023-04-30T06:26:26.328Z,8.40
2023-04-30T06:28:28.902Z,9.75
2023-04-30T06:30:33.294Z,9.13
2023-04-30T06:32:35.939Z,9.60
2023-04-30T06:34:39.711Z,9.00
2023-04-30T06:36:42.269Z,8.85
2023-04-30T06:38:47.324Z,9.73
2023-04-30T06:40:49.954Z,10.13
2023-04-30T06:42:54.394Z,9.57
2023-04-30T06:44:57.008Z,9.68
2023-04-30T06:46:59.595Z,9.88
2023-04-30T06:49:02.333Z,9.25
2023-04-30T06:51:05.427Z,8.77
2023-04-30T06:53:08.047Z,10.18
2023-04-30T06:55:12.123Z,9.32
2023-04-30T06:57:14.704Z,9.52
2023-04-30T06:59:17.780Z,10.43
2023-04-30T07:01:20.488Z,9.68
2023-04-30T07:03:23.317Z,10.10
2023-04-30T07:05:26.037Z,9.60
2023-04-30T07:07:28.910Z,9.60
2023-04-30T07:09:31.542Z,9.80
2023-04-30T07:11:35.467Z,9.02
2023-04-30T07:13:38.480Z,8.98
2023-04-30T07:15:42.198Z,9.35
2023-04-30T07:17:44.886Z,8.98
2023-04-30T07:19:47.531Z,8.90
2023-04-30T07:21:50.210Z,9.38
2023-04-30T07:23:52.810Z,8.70
2023-04-30T07:25:55.375Z,8.93
2023-04-30T07:27:59.273Z,8.95
2023-04-30T07:30:01.846Z,9.35
2023-04-30T07:32:04.903Z,9.35
2023-04-30T07:34:07.469Z,8.52
2023-04-30T07:36:10.102Z,9.18
2023-04-30T07:38:12.698Z,9.40
2023-04-30T07:40:25.075Z,8.20
2023-04-30T07:42:31.494Z,8.50
2023-04-30T07:44:35.436Z,7.75
2023-04-30T07:46:38.218Z,8.25
2023-04-30T07:48:41.285Z,7.97
2023-04-30T07:50:43.870Z,7.55
2023-04-30T07:52:46.484Z,8.20
2023-04-30T07:54:49.058Z,7.55
2023-04-30T07:56:51.626Z,8.10
2023-04-30T07:58:54.169Z,7.05
2023-04-30T08:00:58.187Z,6.78
2023-04-30T08:03:01.219Z,6.95
2023-04-30T08:05:04.482Z,6.50
2023-04-30T08:07:07.557Z,6.18
2023-04-30T08:09:10.149Z,6.38
2023-04-30T08:11:12.894Z,6.35
2023-04-30T08:13:15.655Z,6.28
2023-04-30T08:15:19.214Z,6.30
2023-04-30T08:17:23.170Z,5.47
2023-04-30T08:19:25.792Z,5.80
2023-04-30T08:21:28.672Z,5.65
2023-04-30T08:23:31.227Z,5.65
2023-04-30T08:25:34.187Z,5.45
2023-04-30T08:27:36.774Z,4.90
2023-04-30T08:29:39.331Z,4.57
2023-04-30T08:31:42.120Z,5.25
2023-04-30T08:33:46.032Z,5.53
2023-04-30T08:35:48.674Z,5.25
2023-04-30T08:37:51.486Z,4.75
2023-04-30T08:39:54.391Z,5.00
2023-04-30T08:41:59.447Z,4.55
2023-04-30T08:44:04.763Z,4.72
2023-04-30T08:46:09.293Z,5.22
2023-04-30T08:48:13.997Z,4.80
2023-04-30T08:50:18.033Z,5.05
2023-04-30T08:52:20.733Z,5.40
2023-04-30T08:54:25.540Z,4.97
2023-04-30T08:56:29.536Z,5.40
2023-04-30T08:58:32.207Z,4.90
2023-04-30T09:00:36.658Z,5.60
2023-04-30T09:02:42.552Z,5.03
2023-04-30T09:04:45.936Z,4.82
2023-04-30T09:06:50.020Z,4.85
2023-04-30T09:08:54.229Z,5.10
2023-04-30T09:10:59.406Z,4.45
2023-04-30T09:13:03.727Z,4.90
2023-04-30T09:15:09.060Z,4.97
2023-04-30T09:17:22.550Z,4.93
2023-04-30T09:19:26.725Z,4.90
2023-04-30T09:21:33.229Z,4.78
2023-04-30T09:23:37.218Z,4.75
2023-04-30T09:25:41.701Z,5.00
2023-04-30T09:27:46.012Z,4.53
2023-04-30T09:29:48.660Z,4.60
2023-04-30T09:31:52.053Z,4.18
2023-04-30T09:33:54.996Z,4.97
2023-04-30T09:35:57.570Z,4.60
2023-04-30T09:38:01.113Z,4.60
2023-04-30T09:40:05.750Z,3.97
2023-04-30T09:42:09.695Z,4.88
2023-04-30T09:44:28.295Z,4.10
2023-04-30T09:46:32.621Z,4.32
2023-04-30T09:48:35.312Z,4.35
2023-04-30T09:50:43.261Z,4.60
2023-04-30T09:52:52.938Z,4.72
2023-04-30T09:54:55.623Z,4.25
2023-04-30T09:57:01.523Z,4.30
2023-04-30T09:59:07.248Z,4.38
2023-04-30T10:01:11.792Z,4.07
2023-04-30T10:03:15.636Z,4.40
2023-04-30T10:05:19.517Z,4.18
2023-04-30T10:07:26.175Z,3.85
2023-04-30T10:09:33.498Z,4.00
2023-04-30T10:11:38.585Z,4.00
2023-04-30T10:13:46.596Z,4.18
2023-04-30T10:15:52.835Z,4.00
2023-04-30T10:18:00.885Z,3.80
2023-04-30T10:20:08.727Z,4.00
2023-04-30T10:22:12.205Z,4.05
2023-04-30T10:24:15.836Z,3.50
2023-04-30T10:26:19.327Z,4.38
2023-04-30T10:28:21.991Z,3.78
2023-04-30T10:30:27.284Z,4.07
2023-04-30T10:32:37.976Z,4.10
2023-04-30T10:34:51.542Z,4.18
2023-04-30T10:36:59.201Z,3.45
2023-04-30T10:39:03.584Z,3.33
2023-04-30T10:41:09.547Z,3.75
2023-04-30T10:43:12.918Z,4.38
2023-04-30T10:45:17.057Z,4.05
2023-04-30T10:47:21.226Z,3.90
2023-04-30T10:49:26.595Z,2.92
2023-04-30T10:51:51.709Z,3.42
2023-04-30T10:53:56.148Z,3.30
2023-04-30T10:56:00.443Z,3.55
2023-04-30T10:58:03.148Z,3.38
2023-04-30T11:00:26.805Z,3.60
2023-04-30T11:02:40.067Z,3.58
2023-04-30T11:05:11.387Z,3.65
2023-04-30T11:07:14.255Z,4.00
2023-04-30T11:09:17.068Z,3.47
2023-04-30T11:11:22.028Z,3.40
2023-04-30T11:13:27.588Z,4.25
2023-04-30T11:15:36.638Z,3.50
2023-04-30T11:17:40.828Z,3.35
2023-04-30T11:19:53.792Z,3.45
2023-04-30T11:22:24.182Z,3.30
2023-04-30T11:24:51.007Z,3.35
2023-04-30T11:27:06.626Z,4.10
2023-04-30T11:29:09.768Z,3.40
2023-04-30T11:31:14.134Z,3.72
2023-04-30T11:33:20.314Z,3.60
2023-04-30T11:35:22.991Z,3.72
2023-04-30T11:37:32.490Z,3.72
2023-04-30T11:39:37.020Z,4.00
2023-04-30T11:41:42.048Z,3.50
2023-04-30T11:43:44.683Z,3.38
2023-04-30T11:46:00.151Z,4.80
2023-04-30T11:48:02.853Z,5.07
2023-04-30T11:50:07.795Z,4.15
2023-04-30T11:52:10.803Z,3.53
2023-04-30T11:54:15.968Z,3.40
2023-04-30T11:56:22.408Z,4.38
2023-04-30T11:58:25.137Z,3.45
2023-04-30T12:00:29.643Z,3.20
2023-04-30T12:02:32.428Z,3.45
2023-04-30T12:04:35.287Z,3.33
2023-04-30T12:06:39.340Z,3.20
2023-04-30T12:08:43.073Z,3.50
2023-04-30T12:10:45.658Z,3.65
2023-04-30T12:12:50.717Z,3.65
2023-04-30T12:14:55.134Z,3.17
2023-04-30T12:16:59.942Z,3.72
2023-04-30T12:19:03.860Z,3.20
2023-04-30T12:21:06.687Z,3.65
2023-04-30T12:23:10.695Z,3.20
2023-04-30T12:25:15.078Z,3.35
2023-04-30T12:27:18.137Z,3.33
2023-04-30T12:29:20.855Z,3.10
2023-04-30T12:31:23.440Z,3.22
2023-04-30T12:33:26.000Z,2.78
2023-04-30T12:35:31.043Z,2.90
2023-04-30T12:37:33.784Z,2.95
2023-04-30T12:39:38.160Z,3.10
2023-04-30T12:41:42.804Z,2.88
2023-04-30T12:43:47.847Z,3.10
2023-04-30T12:45:55.852Z,2.95
2023-04-30T12:47:58.692Z,2.90
2023-04-30T12:50:02.045Z,2.70
2023-04-30T12:52:07.528Z,3.25
2023-04-30T12:54:10.600Z,3.22
2023-04-30T12:56:16.771Z,2.83
2023-04-30T12:58:19.978Z,2.83
2023-04-30T13:00:22.937Z,3.30
2023-04-30T13:02:27.083Z,2.70
2023-04-30T13:04:29.895Z,2.95
2023-04-30T13:06:35.567Z,2.83
2023-04-30T13:08:46.387Z,2.88
2023-04-30T13:10:52.803Z,2.80
2023-04-30T13:12:56.711Z,2.80
2023-04-30T13:14:59.287Z,2.83
2023-04-30T13:17:04.848Z,3.85
2023-04-30T13:19:07.413Z,3.20
2023-04-30T13:21:10.789Z,2.85
2023-04-30T13:23:13.599Z,2.90
2023-04-30T13:25:17.078Z,3.38
2023-04-30T13:27:19.628Z,3.30
2023-04-30T13:29:23.528Z,3.20
2023-04-30T13:31:26.178Z,2.95
2023-04-30T13:33:28.733Z,2.70
2023-04-30T13:35:31.300Z,3.05
2023-04-30T13:37:33.899Z,3.15
2023-04-30T13:39:36.446Z,3.08
2023-04-30T13:41:39.199Z,2.65
2023-04-30T13:43:42.683Z,2.80
2023-04-30T13:45:46.963Z,2.80
2023-04-30T13:47:49.555Z,2.65
2023-04-30T13:49:52.170Z,2.75
2023-04-30T13:51:54.730Z,2.58
2023-04-30T13:53:57.370Z,2.80
2023-04-30T13:56:00.277Z,2.88
2023-04-30T13:58:03.659Z,2.72
2023-04-30T14:00:07.958Z,3.00
2023-04-30T14:02:12.300Z,2.70
2023-04-30T14:04:15.086Z,2.90
2023-04-30T14:06:17.993Z,2.63
2023-04-30T14:08:21.884Z,2.75
2023-04-30T14:10:26.066Z,3.10
2023-04-30T14:12:30.627Z,2.47
2023-04-30T14:14:33.400Z,2.65
2023-04-30T14:16:36.164Z,2.83
2023-04-30T14:18:40.083Z,2.50
2023-04-30T14:20:42.681Z,2.60
2023-04-30T14:22:45.612Z,2.55
2023-04-30T14:24:48.239Z,2.45
2023-04-30T14:26:50.889Z,2.58
2023-04-30T14:28:53.564Z,2.67
2023-04-30T14:30:56.184Z,2.75
2023-04-30T14:32:58.736Z,2.75
2023-04-30T14:35:02.690Z,2.80
2023-04-30T14:37:05.249Z,3.08
2023-04-30T14:39:08.850Z,2.63
2023-04-30T14:41:11.451Z,2.50
2023-04-30T14:43:14.025Z,2.33
2023-04-30T14:45:16.684Z,2.97
2023-04-30T14:47:20.206Z,2.80
2023-04-30T14:49:23.069Z,2.30
2023-04-30T14:51:28.639Z,2.40
2023-04-30T14:53:31.269Z,2.22
2023-04-30T14:55:34.000Z,2.50
2023-04-30T14:57:36.617Z,2.35
2023-04-30T14:59:41.033Z,2.22
2023-04-30T15:01:43.641Z,2.78
2023-04-30T15:03:47.229Z,2.70
2023-04-30T15:05:50.236Z,2.50
2023-04-30T15:07:54.174Z,2.58
2023-04-30T15:09:56.999Z,2.80
2023-04-30T15:11:59.754Z,2.50
2023-04-30T15:14:02.359Z,2.22
2023-04-30T15:16:05.673Z,2.42
2023-04-30T15:18:10.215Z,2.33
2023-04-30T15:20:13.247Z,2.50
2023-04-30T15:22:16.164Z,2.30
2023-04-30T15:24:20.084Z,2.40
2023-04-30T15:26:22.780Z,2.35
2023-04-30T15:28:25.424Z,2.30
2023-04-30T15:30:28.005Z,2.05
2023-04-30T15:32:30.614Z,2.30
2023-04-30T15:34:33.155Z,2.50
2023-04-30T15:36:35.852Z,2.42
2023-04-30T15:38:41.288Z,2.22
2023-04-30T15:40:45.339Z,2.30
2023-04-30T15:42:47.991Z,2.13
2023-04-30T15:44:50.570Z,2.42
2023-04-30T15:46:53.336Z,2.53
2023-04-30T15:48:56.045Z,2.30
2023-04-30T15:50:58.628Z,2.78
2023-04-30T15:53:01.207Z,2.58
2023-04-30T15:55:03.791Z,2.45
2023-04-30T15:57:08.420Z,2.38
2023-04-30T15:59:11.167Z,2.47
2023-04-30T16:01:13.800Z,2.80
2023-04-30T16:03:16.505Z,2.60
2023-04-30T16:05:20.011Z,2.80
2023-04-30T16:07:22.648Z,2.80
2023-04-30T16:09:26.919Z,2.70
2023-04-30T16:11:29.488Z,2.80
2023-04-30T16:13:33.439Z,2.78
2023-04-30T16:15:36.134Z,2.83
2023-04-30T16:17:38.714Z,2.83
2023-04-30T16:19:42.030Z,2.80
2023-04-30T16:21:44.812Z,3.00
2023-04-30T16:23:47.662Z,2.80
2023-04-30T16:25:50.351Z,2.65
2023-04-30T16:27:53.842Z,2.55
2023-04-30T16:29:57.971Z,2.70
2023-04-30T16:32:00.931Z,3.17
2023-04-30T16:34:03.620Z,3.05
2023-04-30T16:36:06.312Z,3.25
2023-04-30T16:38:08.842Z,2.92
2023-04-30T16:40:12.300Z,2.67
2023-04-30T16:42:14.869Z,2.88
2023-04-30T16:44:17.417Z,3.17
2023-04-30T16:46:21.427Z,2.75
2023-04-30T16:48:24.056Z,2.70
2023-04-30T16:50:27.109Z,2.42
2023-04-30T16:52:30.049Z,2.55
2023-04-30T16:54:32.701Z,2.95
2023-04-30T16:56:35.420Z,2.60
2023-04-30T16:58:38.584Z,2.95
2023-04-30T17:00:41.173Z,2.75
2023-04-30T17:02:48.934Z,2.83
2023-04-30T17:04:52.333Z,2.67
2023-04-30T17:06:55.099Z,2.60
2023-04-30T17:08:58.103Z,2.83
2023-04-30T17:11:00.789Z,2.50
2023-04-30T17:13:05.469Z,3.13
2023-04-30T17:15:09.040Z,2.63
2023-04-30T17:17:11.595Z,2.80
2023-04-30T17:19:15.522Z,2.70
2023-04-30T17:21:18.084Z,2.50
2023-04-30T17:23:20.805Z,2.28
2023-04-30T17:25:23.516Z,2.70
2023-04-30T17:27:27.157Z,2.55
2023-04-30T17:29:29.717Z,2.70
2023-04-30T17:31:32.430Z,2.63
2023-04-30T17:33:35.046Z,2.55
2023-04-30T17:35:39.094Z,2.53
2023-04-30T17:37:41.626Z,2.40
2023-04-30T17:39:44.200Z,2.70
2023-04-30T17:41:46.740Z,2.25
2023-04-30T17:43:51.080Z,2.33
2023-04-30T17:45:54.392Z,2.72
2023-04-30T17:47:57.034Z,2.40
2023-04-30T17:50:00.254Z,2.47
2023-04-30T17:52:06.176Z,3.47
2023-04-30T17:54:08.835Z,2.55
2023-04-30T17:56:11.429Z,2.45
2023-04-30T17:58:15.004Z,2.42
2023-04-30T18:00:18.562Z,3.15
2023-04-30T18:02:21.219Z,2.80
2023-04-30T18:04:23.941Z,2.65
2023-04-30T18:06:26.679Z,2.60
2023-04-30T18:08:30.780Z,2.65
2023-04-30T18:10:33.366Z,2.78
2023-04-30T18:12:36.857Z,2.50
2023-04-30T18:14:39.446Z,3.05
2023-04-30T18:16:45.130Z,2.63
2023-04-30T18:18:47.802Z,2.85
2023-04-30T18:20:50.856Z,2.70
2023-04-30T18:22:53.428Z,2.97
2023-04-30T18:24:57.351Z,2.83
2023-04-30T18:26:59.982Z,2.40
2023-04-30T18:29:03.100Z,2.72
2023-04-30T18:31:05.682Z,2.70
2023-04-30T18:33:09.006Z,2.60
2023-04-30T18:35:11.838Z,2.85
2023-04-30T18:37:15.022Z,2.80
2023-04-30T18:39:17.650Z,2.70
2023-04-30T18:41:21.721Z,2.80
2023-04-30T18:43:24.500Z,2.60
2023-04-30T18:45:27.378Z,2.90
2023-04-30T18:47:31.064Z,3.03
2023-04-30T18:49:33.892Z,2.92
2023-04-30T18:51:36.484Z,2.47
2023-04-30T18:53:39.076Z,2.97
2023-04-30T18:55:42.875Z,3.33
2023-04-30T18:57:47.119Z,3.63
2023-04-30T18:59:49.728Z,3.25
2023-04-30T19:01:52.290Z,2.50
2023-04-30T19:03:55.403Z,2.88
2023-04-30T19:05:58.659Z,3.75
2023-04-30T19:08:01.287Z,3.05
2023-04-30T19:10:04.891Z,2.83
2023-04-30T19:12:07.452Z,3.15
2023-04-30T19:14:11.923Z,3.10
2023-04-30T19:16:14.566Z,3.00
2023-04-30T19:18:17.790Z,3.45
2023-04-30T19:20:20.414Z,3.13
2023-04-30T19:22:23.711Z,3.28
2023-04-30T19:24:26.886Z,3.15
2023-04-30T19:26:29.550Z,4.00
2023-04-30T19:28:32.140Z,3.70
2023-04-30T19:30:36.086Z,3.97
2023-04-30T19:32:38.778Z,3.60
2023-04-30T19:34:41.407Z,3.40
2023-04-30T19:36:44.550Z,3.97
2023-04-30T19:38:47.129Z,3.63
2023-04-30T19:40:51.803Z,3.92
2023-04-30T19:42:54.917Z,3.97
2023-04-30T19:44:57.564Z,4.63
2023-04-30T19:47:01.478Z,3.60
2023-04-30T19:49:04.372Z,3.53
2023-04-30T19:51:06.976Z,4.00
2023-04-30T19:53:09.646Z,3.92
2023-04-30T19:55:12.877Z,3.80
2023-04-30T19:57:15.527Z,3.97
2023-04-30T19:59:19.130Z,4.00
2023-04-30T20:01:21.761Z,4.00
2023-04-30T20:03:26.354Z,4.50
2023-04-30T20:05:29.469Z,4.90
2023-04-30T20:07:32.016Z,4.22
2023-04-30T20:09:34.614Z,4.18
2023-04-30T20:11:37.185Z,3.80
2023-04-30T20:13:39.757Z,3.63
2023-04-30T20:15:42.473Z,3.60
2023-04-30T20:17:46.134Z,3.88
2023-04-30T20:19:50.125Z,3.70
2023-04-30T20:21:53.618Z,4.00
2023-04-30T20:23:56.177Z,4.38
2023-04-30T20:25:59.261Z,3.90
2023-04-30T20:28:01.810Z,4.13
2023-04-30T20:30:05.281Z,3.97
2023-04-30T20:32:08.004Z,3.67
2023-04-30T20:34:10.616Z,4.30
2023-04-30T20:36:14.958Z,4.30
2023-04-30T20:38:19.786Z,4.05
2023-04-30T20:40:22.865Z,5.03
2023-04-30T20:42:26.943Z,5.18
2023-04-30T20:44:29.502Z,6.20
2023-04-30T20:46:32.283Z,5.30
2023-04-30T20:48:34.932Z,5.25
2023-04-30T20:50:37.652Z,5.80
2023-04-30T20:52:41.682Z,10.88
2023-04-30T20:54:44.603Z,6.97
2023-04-30T20:56:47.421Z,6.18
2023-04-30T20:58:50.010Z,5.25
2023-04-30T21:00:52.643Z,4.90
2023-04-30T21:02:55.541Z,5.40
2023-04-30T21:04:58.575Z,4.90
2023-04-30T21:07:01.140Z,5.55
2023-04-30T21:09:06.232Z,5.90
2023-04-30T21:11:09.726Z,5.30
2023-04-30T21:13:12.850Z,5.35
2023-04-30T21:15:15.815Z,5.20
2023-04-30T21:17:18.583Z,5.60
2023-04-30T21:19:21.176Z,5.72
2023-04-30T21:21:24.271Z,6.15
2023-04-30T21:23:26.853Z,6.13
2023-04-30T21:25:30.965Z,6.05
2023-04-30T21:27:33.923Z,5.15
2023-04-30T21:29:36.540Z,5.15
2023-04-30T21:31:39.114Z,5.28
2023-04-30T21:33:41.971Z,5.57
2023-04-30T21:35:45.067Z,5.72
2023-04-30T21:37:47.691Z,6.18
2023-04-30T21:39:50.259Z,5.78
2023-04-30T21:41:54.271Z,5.22
2023-04-30T21:43:57.202Z,5.55
2023-04-30T21:46:02.577Z,5.63
2023-04-30T21:48:05.905Z,6.07
2023-04-30T21:50:09.935Z,5.95
2023-04-30T21:52:12.595Z,6.28
2023-04-30T21:54:15.158Z,6.38
2023-04-30T21:56:19.173Z,6.22
2023-04-30T21:58:25.051Z,5.60
2023-04-30T22:00:28.106Z,6.03
2023-04-30T22:02:32.762Z,5.75
2023-04-30T22:04:35.430Z,6.00
2023-04-30T22:06:38.103Z,6.18
2023-04-30T22:08:40.699Z,5.93
2023-04-30T22:10:43.305Z,6.20
2023-04-30T22:12:47.777Z,5.88
2023-04-30T22:14:54.958Z,6.65
2023-04-30T22:16:57.690Z,5.70
2023-04-30T22:19:00.462Z,6.00
2023-04-30T22:21:03.066Z,5.72
2023-04-30T22:23:05.769Z,6.15
2023-04-30T22:25:09.947Z,6.47
2023-04-30T22:27:12.564Z,5.88
2023-04-30T22:29:15.108Z,6.82
2023-04-30T22:31:20.638Z,6.25
2023-04-30T22:33:23.245Z,5.82
2023-04-30T22:35:28.498Z,5.10
2023-04-30T22:37:31.226Z,5.85
2023-04-30T22:39:33.851Z,6.07
2023-04-30T22:41:36.770Z,5.88
2023-04-30T22:43:39.408Z,5.80
2023-04-30T22:45:42.005Z,6.30
2023-04-30T22:47:46.541Z,5.55
2023-04-30T22:49:49.243Z,6.22
2023-04-30T22:51:52.107Z,6.13
2023-04-30T22:53:54.935Z,6.60
2023-04-30T22:55:57.522Z,6.25
2023-04-30T22:58:01.633Z,6.25
2023-04-30T23:00:04.597Z,6.18
2023-04-30T23:02:07.388Z,6.53
2023-04-30T23:04:11.366Z,5.80
2023-04-30T23:06:14.306Z,6.70
2023-04-30T23:08:16.916Z,6.57
2023-04-30T23:10:19.545Z,6.35
2023-04-30T23:12:22.443Z,5.88
2023-04-30T23:14:25.853Z,6.05
2023-04-30T23:16:28.447Z,7.13
2023-04-30T23:18:31.554Z,6.18
2023-04-30T23:20:35.489Z,6.57
2023-04-30T23:22:38.038Z,6.03
2023-04-30T23:24:41.191Z,6.60
2023-04-30T23:26:44.250Z,6.65
2023-04-30T23:28:46.820Z,6.43
2023-04-30T23:30:51.588Z,6.25
2023-04-30T23:32:54.616Z,5.85
2023-04-30T23:34:57.281Z,6.25
2023-04-30T23:37:01.342Z,6.88
2023-04-30T23:39:04.540Z,5.63
2023-04-30T23:41:07.687Z,6.15
2023-04-30T23:43:10.405Z,6.13
2023-04-30T23:45:12.966Z,5.53
2023-04-30T23:47:15.696Z,6.10
2023-04-30T23:49:18.835Z,5.38
2023-04-30T23:51:22.476Z,5.97
2023-04-30T23:53:26.452Z,5.80
2023-04-30T23:55:29.189Z,5.88
2023-04-30T23:57:31.852Z,5.93
2023-04-30T23:59:34.439Z,5.80
